Time;durP1;ratioP1;P1;durP2;ratioP2;P2;SDS_P1;SDS_P2;PMS_P1;PMS_P2;Temp;Humidity;BMP_temperature;BMP_pressure;BME280_temperature;BME280_humidity;BME280_pressure;Samples;Min_cycle;Max_cycle;Signal;HPM_P1;HPM_P2
2021/09/26 00:00:33;;;;;;;9.90;8.03;;;;;;;;;;5015988;28;20511;-62
2021/09/26 00:02:59;;;;;;;10.20;7.80;;;;;;;;;;5013447;28;20590;-62
2021/09/26 00:05:25;;;;;;;9.63;7.40;;;;;;;;;;5016261;28;20569;-62
2021/09/26 00:07:51;;;;;;;10.13;7.50;;;;;;;;;;5014740;28;20431;-61
2021/09/26 00:10:17;;;;;;;10.70;7.83;;;;;;;;;;5016397;28;20455;-61
2021/09/26 00:12:44;;;;;;;8.40;6.00;;;;;;;;;;5014413;28;20987;-61
2021/09/26 00:15:12;;;;;;;6.80;6.10;;;;;;;;;;5016721;28;20550;-61
2021/09/26 00:17:38;;;;;;;8.53;6.83;;;;;;;;;;5015182;28;20428;-61
2021/09/26 00:20:05;;;;;;;8.47;6.83;;;;;;;;;;5014280;28;20452;-61
2021/09/26 00:22:31;;;;;;;8.70;6.77;;;;;;;;;;5014148;28;20467;-61
2021/09/26 00:24:57;;;;;;;7.80;5.20;;;;;;;;;;5014910;28;20428;-61
2021/09/26 00:27:23;;;;;;;12.23;6.23;;;;;;;;;;5015036;28;20431;-61
2021/09/26 00:29:49;;;;;;;7.07;5.60;;;;;;;;;;5015481;28;20514;-61
2021/09/26 00:32:15;;;;;;;7.40;5.60;;;;;;;;;;5014564;28;20431;-61
2021/09/26 00:34:41;;;;;;;7.90;5.93;;;;;;;;;;5015664;28;20877;-59
2021/09/26 00:37:07;;;;;;;6.67;5.37;;;;;;;;;;5005930;28;20429;-61
2021/09/26 00:39:33;;;;;;;10.07;5.87;;;;;;;;;;4996518;28;20452;-61
2021/09/26 00:41:59;;;;;;;9.10;5.67;;;;;;;;;;5002254;28;20968;-60
2021/09/26 00:44:26;;;;;;;6.57;5.47;;;;;;;;;;5015562;28;20418;-59
2021/09/26 00:46:52;;;;;;;6.40;5.17;;;;;;;;;;5008857;28;20416;-60
2021/09/26 00:49:20;;;;;;;6.93;6.03;;;;;;;;;;4996294;28;20428;-61
2021/09/26 00:51:46;;;;;;;6.17;5.00;;;;;;;;;;5001054;28;20428;-60
2021/09/26 00:54:13;;;;;;;7.77;5.90;;;;;;;;;;5016464;28;20854;-62
2021/09/26 00:56:39;;;;;;;8.43;4.83;;;;;;;;;;5011118;28;20832;-61
2021/09/26 00:59:05;;;;;;;7.23;5.20;;;;;;;;;;5013121;28;20471;-60
2021/09/26 01:01:31;;;;;;;6.40;5.67;;;;;;;;;;5012339;28;20571;-61
2021/09/26 01:03:57;;;;;;;7.63;6.43;;;;;;;;;;4995375;28;20435;-59
2021/09/26 01:06:29;;;;;;;6.43;5.07;;;;;;;;;;4995592;28;20886;-59
2021/09/26 01:09:14;;;;;;;8.23;5.07;;;;;;;;;;5014807;28;20424;-61
2021/09/26 01:11:43;;;;;;;6.23;4.67;;;;;;;;;;5011358;28;20427;-59
2021/09/26 01:14:17;;;;;;;5.70;5.00;;;;;;;;;;5007000;28;20426;-60
2021/09/26 01:16:56;;;;;;;6.73;5.33;;;;;;;;;;4997282;28;20500;-58
2021/09/26 01:19:35;;;;;;;5.93;4.20;;;;;;;;;;4993129;28;20439;-58
2021/09/26 01:22:01;;;;;;;11.90;5.40;;;;;;;;;;4994100;28;20758;-57
2021/09/26 01:24:36;;;;;;;6.13;4.97;;;;;;;;;;5015514;28;20403;-61
2021/09/26 01:27:12;;;;;;;7.20;5.20;;;;;;;;;;5015620;28;20755;-60
2021/09/26 01:29:50;;;;;;;7.47;5.20;;;;;;;;;;5016524;28;20431;-61
2021/09/26 01:32:16;;;;;;;6.70;4.87;;;;;;;;;;5015287;28;20411;-59
2021/09/26 01:34:44;;;;;;;5.90;4.83;;;;;;;;;;5016235;28;20450;-62
2021/09/26 01:37:16;;;;;;;7.07;4.90;;;;;;;;;;5015067;28;20400;-61
2021/09/26 01:39:47;;;;;;;6.80;5.83;;;;;;;;;;5016019;28;20447;-62
2021/09/26 01:42:17;;;;;;;7.63;5.20;;;;;;;;;;5014783;28;20541;-61
2021/09/26 01:44:54;;;;;;;6.70;5.30;;;;;;;;;;5017136;28;20446;-63
2021/09/26 01:47:22;;;;;;;7.13;4.87;;;;;;;;;;4999585;28;20483;-62
2021/09/26 01:49:55;;;;;;;5.90;4.90;;;;;;;;;;4999764;28;20818;-62
2021/09/26 01:52:22;;;;;;;9.00;4.50;;;;;;;;;;5001245;28;20435;-63
2021/09/26 01:54:48;;;;;;;6.67;5.67;;;;;;;;;;5018879;28;20482;-63
2021/09/26 01:57:21;;;;;;;8.10;5.00;;;;;;;;;;5017822;28;20446;-62
2021/09/26 01:59:51;;;;;;;7.43;5.80;;;;;;;;;;5018949;28;20431;-62
2021/09/26 02:02:20;;;;;;;6.50;5.27;;;;;;;;;;5015444;28;20495;-63
2021/09/26 02:04:48;;;;;;;6.50;5.20;;;;;;;;;;4999197;28;20401;-62
2021/09/26 02:07:14;;;;;;;7.43;4.90;;;;;;;;;;4998234;28;20404;-63
2021/09/26 02:09:42;;;;;;;6.07;5.00;;;;;;;;;;5014561;28;20475;-62
2021/09/26 02:12:08;;;;;;;6.97;4.93;;;;;;;;;;5017979;28;20408;-63
2021/09/26 02:14:35;;;;;;;6.00;4.83;;;;;;;;;;4999398;28;20571;-62
2021/09/26 02:17:01;;;;;;;7.47;4.70;;;;;;;;;;4998996;28;20413;-62
2021/09/26 02:19:27;;;;;;;7.27;5.30;;;;;;;;;;4998591;28;20456;-63
2021/09/26 02:21:54;;;;;;;6.73;5.50;;;;;;;;;;4998701;28;20544;-62
2021/09/26 02:24:20;;;;;;;7.07;5.40;;;;;;;;;;5016034;28;20424;-62
2021/09/26 02:26:46;;;;;;;6.20;4.93;;;;;;;;;;5018536;28;20466;-62
2021/09/26 02:29:12;;;;;;;8.60;5.53;;;;;;;;;;5017880;28;20478;-62
2021/09/26 02:31:39;;;;;;;6.17;4.90;;;;;;;;;;5017812;28;20450;-61
2021/09/26 02:34:05;;;;;;;6.50;5.00;;;;;;;;;;5015092;28;20424;-61
2021/09/26 02:36:31;;;;;;;13.47;5.90;;;;;;;;;;5017137;28;20407;-61
2021/09/26 02:38:57;;;;;;;6.00;4.80;;;;;;;;;;5016636;28;20483;-61
2021/09/26 02:41:26;;;;;;;5.93;5.13;;;;;;;;;;5017934;28;20774;-62
2021/09/26 02:44:05;;;;;;;6.87;5.40;;;;;;;;;;5004054;28;20420;-63
2021/09/26 02:46:32;;;;;;;8.10;4.93;;;;;;;;;;5006628;28;20419;-62
2021/09/26 02:48:59;;;;;;;10.90;5.80;;;;;;;;;;5011817;28;20458;-62
2021/09/26 02:51:26;;;;;;;8.50;5.87;;;;;;;;;;5013529;28;21689;-61
2021/09/26 02:53:52;;;;;;;7.87;5.10;;;;;;;;;;5016343;28;20432;-61
2021/09/26 02:56:19;;;;;;;7.87;5.33;;;;;;;;;;5016756;28;20410;-61
2021/09/26 02:58:45;;;;;;;5.73;5.10;;;;;;;;;;5016334;28;20434;-61
2021/09/26 03:01:11;;;;;;;5.47;4.90;;;;;;;;;;5015646;28;20404;-59
2021/09/26 03:03:37;;;;;;;6.50;5.33;;;;;;;;;;5015833;28;20431;-61
2021/09/26 03:06:03;;;;;;;9.07;6.40;;;;;;;;;;5016287;28;20408;-61
2021/09/26 03:08:29;;;;;;;11.50;6.30;;;;;;;;;;5015429;28;20553;-60
2021/09/26 03:10:57;;;;;;;9.97;6.77;;;;;;;;;;5017120;28;20400;-61
2021/09/26 03:13:23;;;;;;;7.37;5.33;;;;;;;;;;5008324;28;20436;-61
2021/09/26 03:15:49;;;;;;;7.60;5.30;;;;;;;;;;4997395;28;20436;-61
2021/09/26 03:18:15;;;;;;;5.40;4.83;;;;;;;;;;5002605;28;20428;-61
2021/09/26 03:20:41;;;;;;;7.50;5.87;;;;;;;;;;5016497;28;20426;-59
2021/09/26 03:23:08;;;;;;;6.90;5.90;;;;;;;;;;5015514;28;20474;-62
2021/09/26 03:25:34;;;;;;;7.03;5.67;;;;;;;;;;5015299;28;20419;-61
2021/09/26 03:28:00;;;;;;;5.90;5.00;;;;;;;;;;5008898;28;20527;-61
2021/09/26 03:30:27;;;;;;;7.00;5.37;;;;;;;;;;5010028;28;20792;-61
2021/09/26 03:32:53;;;;;;;12.23;5.60;;;;;;;;;;5013943;28;20469;-62
2021/09/26 03:35:19;;;;;;;9.97;5.50;;;;;;;;;;5016131;28;20415;-61
2021/09/26 03:37:45;;;;;;;7.33;5.67;;;;;;;;;;5015328;28;20443;-61
2021/09/26 03:40:11;;;;;;;7.60;4.70;;;;;;;;;;5016361;28;20448;-60
2021/09/26 03:42:38;;;;;;;6.90;5.17;;;;;;;;;;5015701;28;20463;-63
2021/09/26 03:45:05;;;;;;;7.03;5.07;;;;;;;;;;4996135;28;20403;-61
2021/09/26 03:47:31;;;;;;;12.47;5.60;;;;;;;;;;4996276;28;20429;-62
2021/09/26 03:49:57;;;;;;;7.10;5.23;;;;;;;;;;5015001;28;20447;-61
2021/09/26 03:52:23;;;;;;;5.37;4.27;;;;;;;;;;5016208;28;20423;-61
2021/09/26 03:54:51;;;;;;;5.33;4.83;;;;;;;;;;4997128;28;20424;-61
2021/09/26 03:57:17;;;;;;;6.93;4.90;;;;;;;;;;4996026;28;20405;-60
2021/09/26 03:59:44;;;;;;;7.00;4.70;;;;;;;;;;5011534;28;20530;-61
2021/09/26 04:02:10;;;;;;;7.87;5.40;;;;;;;;;;5015503;28;20486;-62
2021/09/26 04:04:36;;;;;;;7.10;5.60;;;;;;;;;;5014225;28;20534;-62
2021/09/26 04:07:02;;;;;;;7.37;5.07;;;;;;;;;;5015458;28;20415;-61
2021/09/26 04:09:28;;;;;;;6.80;4.77;;;;;;;;;;5014839;28;20458;-62
2021/09/26 04:11:54;;;;;;;7.57;5.27;;;;;;;;;;5015326;28;20412;-62
2021/09/26 04:14:20;;;;;;;6.27;5.30;;;;;;;;;;5001673;28;20424;-62
2021/09/26 04:16:49;;;;;;;6.90;5.33;;;;;;;;;;4996634;28;20476;-62
2021/09/26 04:19:16;;;;;;;8.97;5.83;;;;;;;;;;4996083;28;20459;-61
2021/09/26 04:21:43;;;;;;;6.97;4.90;;;;;;;;;;4996251;28;20476;-62
2021/09/26 04:24:09;;;;;;;8.23;5.47;;;;;;;;;;5006819;28;20426;-61
2021/09/26 04:26:35;;;;;;;5.63;4.80;;;;;;;;;;5012766;28;20481;-61
2021/09/26 04:29:01;;;;;;;6.87;5.37;;;;;;;;;;5015682;28;20428;-61
2021/09/26 04:31:27;;;;;;;7.20;4.90;;;;;;;;;;5005348;28;20452;-61
2021/09/26 04:33:53;;;;;;;8.00;5.00;;;;;;;;;;4996129;28;20467;-61
2021/09/26 04:36:19;;;;;;;6.77;5.20;;;;;;;;;;5003573;28;20487;-60
2021/09/26 04:38:45;;;;;;;6.60;5.10;;;;;;;;;;5016794;28;20404;-62
2021/09/26 04:41:11;;;;;;;10.00;5.57;;;;;;;;;;5017184;28;20461;-61
2021/09/26 04:43:37;;;;;;;8.23;5.53;;;;;;;;;;5017774;28;20407;-62
2021/09/26 04:46:03;;;;;;;5.63;4.93;;;;;;;;;;5017053;28;20420;-62
2021/09/26 04:48:30;;;;;;;6.80;5.50;;;;;;;;;;5017197;28;20495;-60
2021/09/26 04:50:56;;;;;;;7.87;5.53;;;;;;;;;;5015646;28;20434;-62
2021/09/26 04:53:22;;;;;;;6.90;5.40;;;;;;;;;;5016870;28;20419;-62
2021/09/26 04:55:49;;;;;;;6.17;4.80;;;;;;;;;;5016179;28;20535;-61
2021/09/26 04:58:15;;;;;;;5.83;4.97;;;;;;;;;;5018048;28;20869;-62
2021/09/26 05:00:41;;;;;;;8.23;5.30;;;;;;;;;;5016909;28;20539;-61
2021/09/26 05:03:08;;;;;;;5.97;4.80;;;;;;;;;;5019589;28;20494;-61
2021/09/26 05:05:34;;;;;;;8.00;5.20;;;;;;;;;;5019932;28;20404;-63
2021/09/26 05:08:00;;;;;;;8.17;5.60;;;;;;;;;;5021026;28;20407;-61
2021/09/26 05:10:26;;;;;;;9.43;7.27;;;;;;;;;;5020381;28;20427;-64
2021/09/26 05:12:52;;;;;;;11.30;6.90;;;;;;;;;;5001132;28;20440;-61
2021/09/26 05:15:18;;;;;;;7.83;6.40;;;;;;;;;;5001126;28;20424;-61
2021/09/26 05:17:44;;;;;;;5.67;4.70;;;;;;;;;;5002129;28;20467;-61
2021/09/26 05:20:11;;;;;;;6.33;5.60;;;;;;;;;;5001676;28;20799;-62
2021/09/26 05:22:38;;;;;;;9.10;5.27;;;;;;;;;;5017179;28;20463;-61
2021/09/26 05:25:04;;;;;;;7.70;4.97;;;;;;;;;;5008661;28;20421;-60
2021/09/26 05:27:31;;;;;;;6.50;5.00;;;;;;;;;;5001994;28;20420;-61
2021/09/26 05:29:57;;;;;;;6.90;5.20;;;;;;;;;;5000968;28;20459;-60
2021/09/26 05:32:23;;;;;;;8.37;5.80;;;;;;;;;;5014494;28;20924;-58
2021/09/26 05:34:49;;;;;;;8.90;7.13;;;;;;;;;;5019555;28;20396;-62
2021/09/26 05:37:15;;;;;;;6.93;4.80;;;;;;;;;;5017023;28;20441;-62
2021/09/26 05:39:41;;;;;;;8.13;5.40;;;;;;;;;;5018761;28;20571;-62
2021/09/26 05:42:07;;;;;;;11.83;5.53;;;;;;;;;;5018434;28;20455;-61
2021/09/26 05:44:34;;;;;;;6.53;5.37;;;;;;;;;;5019428;28;20442;-61
2021/09/26 05:47:00;;;;;;;6.40;5.47;;;;;;;;;;5018211;28;20799;-62
2021/09/26 05:49:26;;;;;;;11.80;5.60;;;;;;;;;;5019352;28;20455;-62
2021/09/26 05:51:52;;;;;;;6.83;5.33;;;;;;;;;;5018401;28;20465;-61
2021/09/26 05:54:19;;;;;;;6.47;4.50;;;;;;;;;;5019266;28;20403;-61
2021/09/26 05:56:46;;;;;;;7.83;5.20;;;;;;;;;;5013207;28;20423;-63
2021/09/26 05:59:12;;;;;;;6.00;4.40;;;;;;;;;;4999730;28;20451;-62
2021/09/26 06:01:38;;;;;;;9.20;4.77;;;;;;;;;;5002351;28;20513;-61
2021/09/26 06:04:04;;;;;;;6.17;5.00;;;;;;;;;;5019616;28;20412;-61
2021/09/26 06:06:30;;;;;;;7.50;5.40;;;;;;;;;;5017104;28;20395;-63
2021/09/26 06:08:56;;;;;;;5.50;4.00;;;;;;;;;;4999255;28;20428;-62
2021/09/26 06:11:22;;;;;;;9.00;4.67;;;;;;;;;;4999252;28;20393;-62
2021/09/26 06:13:48;;;;;;;9.40;4.67;;;;;;;;;;5018451;28;20508;-61
2021/09/26 06:16:14;;;;;;;5.50;4.80;;;;;;;;;;5018069;28;20507;-61
2021/09/26 06:18:40;;;;;;;5.63;4.73;;;;;;;;;;4999107;28;20543;-62
2021/09/26 06:21:06;;;;;;;7.63;4.67;;;;;;;;;;4999101;28;20408;-61
2021/09/26 06:23:32;;;;;;;8.30;4.67;;;;;;;;;;4998784;28;20904;-61
2021/09/26 06:26:00;;;;;;;4.80;4.30;;;;;;;;;;4999236;28;20487;-61
2021/09/26 06:28:26;;;;;;;5.90;4.40;;;;;;;;;;4999314;28;20432;-61
2021/09/26 06:30:52;;;;;;;7.17;4.50;;;;;;;;;;4998813;28;20427;-61
2021/09/26 06:33:18;;;;;;;6.00;5.07;;;;;;;;;;5013209;28;20420;-60
2021/09/26 06:35:44;;;;;;;6.63;4.43;;;;;;;;;;5018489;28;20408;-62
2021/09/26 06:38:10;;;;;;;7.03;4.63;;;;;;;;;;5004327;28;20429;-61
2021/09/26 06:40:36;;;;;;;6.93;4.70;;;;;;;;;;4997742;28;20452;-62
2021/09/26 06:43:02;;;;;;;6.43;5.50;;;;;;;;;;5013463;28;20517;-61
2021/09/26 06:45:29;;;;;;;12.60;4.80;;;;;;;;;;5017608;28;20400;-62
2021/09/26 06:47:55;;;;;;;6.83;4.97;;;;;;;;;;5005848;28;20862;-62
2021/09/26 06:50:21;;;;;;;5.20;4.03;;;;;;;;;;4998144;28;20425;-61
2021/09/26 06:52:47;;;;;;;5.03;4.10;;;;;;;;;;5006832;28;20435;-62
2021/09/26 06:55:13;;;;;;;9.87;4.70;;;;;;;;;;5017527;28;20406;-62
2021/09/26 06:57:39;;;;;;;7.93;4.20;;;;;;;;;;5016649;28;20428;-62
2021/09/26 07:00:06;;;;;;;5.13;4.17;;;;;;;;;;5016908;28;20427;-61
2021/09/26 07:02:32;;;;;;;5.43;4.63;;;;;;;;;;5008473;28;20465;-61
2021/09/26 07:04:58;;;;;;;6.90;3.77;;;;;;;;;;4997485;28;20897;-61
2021/09/26 07:07:25;;;;;;;4.90;3.97;;;;;;;;;;5004229;28;20431;-61
2021/09/26 07:09:51;;;;;;;6.47;4.10;;;;;;;;;;5017564;28;20433;-61
2021/09/26 07:12:18;;;;;;;6.90;4.20;;;;;;;;;;5016001;28;20460;-62
2021/09/26 07:14:45;;;;;;;6.10;3.90;;;;;;;;;;5017102;28;20420;-62
2021/09/26 07:17:11;;;;;;;7.23;4.17;;;;;;;;;;5015194;28;20439;-61
2021/09/26 07:19:37;;;;;;;6.33;3.67;;;;;;;;;;5014256;28;20430;-61
2021/09/26 07:22:04;;;;;;;5.90;4.57;;;;;;;;;;5007029;28;20463;-61
2021/09/26 07:24:31;;;;;;;10.00;4.17;;;;;;;;;;5014399;28;20443;-61
2021/09/26 07:26:57;;;;;;;5.10;3.80;;;;;;;;;;5013391;28;20428;-61
2021/09/26 07:29:23;;;;;;;8.13;5.57;;;;;;;;;;5014311;28;20447;-61
2021/09/26 07:31:49;;;;;;;7.40;4.50;;;;;;;;;;5012747;28;20400;-61
2021/09/26 07:34:15;;;;;;;7.60;4.23;;;;;;;;;;5013970;28;20447;-61
2021/09/26 07:36:43;;;;;;;4.90;3.20;;;;;;;;;;5014218;28;20454;-61
2021/09/26 07:39:09;;;;;;;7.20;4.03;;;;;;;;;;5013426;28;20455;-61
2021/09/26 07:41:35;;;;;;;6.67;3.90;;;;;;;;;;5014131;28;20855;-61
2021/09/26 07:44:01;;;;;;;6.63;4.50;;;;;;;;;;5013185;28;20901;-61
2021/09/26 07:46:27;;;;;;;4.93;3.57;;;;;;;;;;5013900;28;20407;-61
2021/09/26 07:48:53;;;;;;;6.03;3.27;;;;;;;;;;5012926;28;20479;-61
2021/09/26 07:51:19;;;;;;;5.43;3.60;;;;;;;;;;5013872;28;20487;-61
2021/09/26 07:53:46;;;;;;;5.70;3.87;;;;;;;;;;5013181;28;20424;-61
2021/09/26 07:56:12;;;;;;;5.17;3.33;;;;;;;;;;5008616;28;20430;-62
2021/09/26 07:58:38;;;;;;;6.10;3.20;;;;;;;;;;5012872;28;20792;-62
2021/09/26 08:01:04;;;;;;;6.10;3.77;;;;;;;;;;5013737;28;20400;-62
2021/09/26 08:03:30;;;;;;;6.40;3.87;;;;;;;;;;4999676;28;20464;-62
2021/09/26 08:05:56;;;;;;;4.40;2.93;;;;;;;;;;4994224;28;20461;-62
2021/09/26 08:08:23;;;;;;;5.23;3.17;;;;;;;;;;5005582;28;20419;-62
2021/09/26 08:10:49;;;;;;;7.17;3.30;;;;;;;;;;5013843;28;20849;-62
2021/09/26 08:13:15;;;;;;;4.27;2.80;;;;;;;;;;5012448;28;20523;-62
2021/09/26 08:15:41;;;;;;;5.80;3.70;;;;;;;;;;5015176;28;20408;-62
2021/09/26 08:18:08;;;;;;;4.70;3.00;;;;;;;;;;5013619;28;20931;-62
2021/09/26 08:20:34;;;;;;;7.80;3.33;;;;;;;;;;5014314;28;20447;-62
2021/09/26 08:23:00;;;;;;;4.23;2.43;;;;;;;;;;5012435;28;20474;-61
2021/09/26 08:25:26;;;;;;;5.30;3.17;;;;;;;;;;5013826;28;20885;-62
2021/09/26 08:27:52;;;;;;;6.20;2.80;;;;;;;;;;5012104;28;20424;-62
2021/09/26 08:30:19;;;;;;;3.97;2.67;;;;;;;;;;5013482;28;20920;-59
2021/09/26 08:32:46;;;;;;;4.37;2.83;;;;;;;;;;5012590;28;20908;-61
2021/09/26 08:35:12;;;;;;;5.13;2.90;;;;;;;;;;5017591;28;20406;-61
2021/09/26 08:37:38;;;;;;;3.57;2.53;;;;;;;;;;5016449;28;20931;-61
2021/09/26 08:40:05;;;;;;;6.57;3.10;;;;;;;;;;5017343;28;20534;-61
2021/09/26 08:42:32;;;;;;;7.60;2.90;;;;;;;;;;5010593;28;20485;-61
2021/09/26 08:44:58;;;;;;;12.80;4.17;;;;;;;;;;4997944;28;20408;-61
2021/09/26 08:47:24;;;;;;;4.70;2.93;;;;;;;;;;4999552;28;20431;-61
2021/09/26 08:49:51;;;;;;;4.40;3.03;;;;;;;;;;5017090;28;20915;-62
2021/09/26 08:52:17;;;;;;;6.10;3.00;;;;;;;;;;5015298;28;20902;-60
2021/09/26 08:54:44;;;;;;;6.60;2.77;;;;;;;;;;4997805;28;20405;-61
2021/09/26 08:57:10;;;;;;;5.90;2.60;;;;;;;;;;5003286;28;20573;-61
2021/09/26 08:59:36;;;;;;;3.47;2.40;;;;;;;;;;5016858;28;20443;-62
2021/09/26 09:02:02;;;;;;;3.20;2.33;;;;;;;;;;5016272;28;20800;-62
2021/09/26 09:04:35;;;;;;;9.17;2.50;;;;;;;;;;5016115;28;20462;-61
2021/09/26 09:07:03;;;;;;;6.63;2.47;;;;;;;;;;5017341;28;20485;-61
2021/09/26 09:09:29;;;;;;;3.07;2.00;;;;;;;;;;5016238;28;20447;-61
2021/09/26 09:11:58;;;;;;;3.40;2.37;;;;;;;;;;5016702;28;20404;-61
2021/09/26 09:14:24;;;;;;;2.60;2.10;;;;;;;;;;5016044;28;20806;-61
2021/09/26 09:16:54;;;;;;;5.20;2.53;;;;;;;;;;5016672;28;20736;-61
2021/09/26 09:19:21;;;;;;;4.33;2.93;;;;;;;;;;5013829;28;20485;-62
2021/09/26 09:21:47;;;;;;;7.03;2.73;;;;;;;;;;5016466;28;20485;-62
2021/09/26 09:24:15;;;;;;;8.13;4.13;;;;;;;;;;4999924;28;20455;-62
2021/09/26 09:26:43;;;;;;;6.20;2.83;;;;;;;;;;4996755;28;20449;-62
2021/09/26 09:29:09;;;;;;;6.30;2.73;;;;;;;;;;5011081;28;20453;-62
2021/09/26 09:31:46;;;;;;;4.87;3.00;;;;;;;;;;5016313;28;20439;-62
2021/09/26 09:34:27;;;;;;;4.07;2.23;;;;;;;;;;5015079;28;20426;-62
2021/09/26 09:37:08;;;;;;;5.23;2.87;;;;;;;;;;5000196;28;20423;-62
2021/09/26 09:39:34;;;;;;;5.70;2.77;;;;;;;;;;5011773;28;20467;-62
2021/09/26 09:42:01;;;;;;;11.37;4.20;;;;;;;;;;4996848;28;20881;-61
2021/09/26 09:44:36;;;;;;;8.57;2.50;;;;;;;;;;5012530;28;20931;-62
2021/09/26 09:47:02;;;;;;;7.63;3.10;;;;;;;;;;5016071;28;20964;-61
2021/09/26 09:49:28;;;;;;;3.50;2.10;;;;;;;;;;4998775;28;20819;-62
2021/09/26 09:51:55;;;;;;;3.17;2.17;;;;;;;;;;4996629;28;21001;-62
2021/09/26 09:54:35;;;;;;;3.50;2.37;;;;;;;;;;5011472;28;20423;-61
2021/09/26 09:57:15;;;;;;;4.83;2.53;;;;;;;;;;5016782;28;20407;-61
2021/09/26 09:59:44;;;;;;;5.90;3.13;;;;;;;;;;5015170;28;20462;-62
2021/09/26 10:02:10;;;;;;;6.23;2.90;;;;;;;;;;5016060;28;20451;-61
2021/09/26 10:04:38;;;;;;;4.00;2.37;;;;;;;;;;4998284;28;20502;-60
2021/09/26 10:07:25;;;;;;;4.83;2.70;;;;;;;;;;4996360;28;20413;-61
2021/09/26 10:09:52;;;;;;;4.70;2.53;;;;;;;;;;5012625;28;20959;-59
2021/09/26 10:12:29;;;;;;;5.60;3.80;;;;;;;;;;5015830;28;20410;-61
2021/09/26 10:14:57;;;;;;;7.53;2.27;;;;;;;;;;5014599;28;20450;-61
2021/09/26 10:17:23;;;;;;;3.10;2.33;;;;;;;;;;5015735;28;20767;-60
2021/09/26 10:19:50;;;;;;;7.73;2.47;;;;;;;;;;5001223;28;20452;-60
2021/09/26 10:22:16;;;;;;;6.00;3.03;;;;;;;;;;4995666;28;20479;-60
2021/09/26 10:24:44;;;;;;;3.53;2.37;;;;;;;;;;4996089;28;20464;-61
2021/09/26 10:27:11;;;;;;;6.67;2.40;;;;;;;;;;4996213;28;20809;-59
2021/09/26 10:29:37;;;;;;;7.20;2.73;;;;;;;;;;5006390;28;20451;-60
2021/09/26 10:32:05;;;;;;;5.53;2.47;;;;;;;;;;5014099;28;20878;-59
2021/09/26 10:34:32;;;;;;;8.73;3.47;;;;;;;;;;5014543;28;20826;-57
2021/09/26 10:36:59;;;;;;;4.63;2.80;;;;;;;;;;5015192;28;20415;-61
2021/09/26 10:39:26;;;;;;;9.37;4.40;;;;;;;;;;5014238;28;20474;-60
2021/09/26 10:42:07;;;;;;;6.63;3.10;;;;;;;;;;5014001;28;20815;-57
2021/09/26 10:44:37;;;;;;;3.80;2.60;;;;;;;;;;5013478;28;20419;-60
2021/09/26 10:47:08;;;;;;;7.37;3.13;;;;;;;;;;5015220;28;20736;-61
2021/09/26 10:49:42;;;;;;;5.70;2.43;;;;;;;;;;5013853;28;20479;-61
2021/09/26 10:52:37;;;;;;;7.63;2.93;;;;;;;;;;5014961;28;20419;-62
2021/09/26 10:55:18;;;;;;;4.53;2.63;;;;;;;;;;5000740;28;20474;-61
2021/09/26 10:57:53;;;;;;;4.43;2.30;;;;;;;;;;5014314;28;20880;-62
2021/09/26 11:00:53;;;;;;;10.83;2.97;;;;;;;;;;4998900;28;20498;-62
2021/09/26 11:03:20;;;;;;;8.33;2.67;;;;;;;;;;4993600;28;20555;-62
2021/09/26 11:05:50;;;;;;;4.77;2.77;;;;;;;;;;5012629;28;20434;-62
2021/09/26 11:08:16;;;;;;;5.03;2.70;;;;;;;;;;5013310;28;20856;-61
2021/09/26 11:10:42;;;;;;;5.50;2.40;;;;;;;;;;5012913;28;20956;-61
2021/09/26 11:13:08;;;;;;;6.87;2.57;;;;;;;;;;5014653;28;20411;-61
2021/09/26 11:15:54;;;;;;;4.93;2.40;;;;;;;;;;5012613;28;20424;-61
2021/09/26 11:18:38;;;;;;;7.00;3.20;;;;;;;;;;5014500;28;20438;-61
2021/09/26 11:21:05;;;;;;;6.43;2.60;;;;;;;;;;4994948;28;20415;-62
2021/09/26 11:23:34;;;;;;;4.60;2.30;;;;;;;;;;4994466;28;20941;-61
2021/09/26 11:26:05;;;;;;;7.80;2.30;;;;;;;;;;5013070;28;20442;-61
2021/09/26 11:28:36;;;;;;;8.63;2.30;;;;;;;;;;5014186;28;20412;-60
2021/09/26 11:31:03;;;;;;;6.10;2.20;;;;;;;;;;5012411;28;20416;-62
2021/09/26 11:33:48;;;;;;;4.80;2.77;;;;;;;;;;5014249;28;20411;-62
2021/09/26 11:36:20;;;;;;;6.03;2.63;;;;;;;;;;5013418;28;20434;-62
2021/09/26 11:38:46;;;;;;;4.93;2.53;;;;;;;;;;5013013;28;20427;-61
2021/09/26 11:41:12;;;;;;;6.53;2.77;;;;;;;;;;5071984;23;20600;-64
2021/09/26 11:43:40;;;;;;;6.80;3.00;;;;;;;;;;5053447;28;20980;-63
2021/09/26 11:46:15;;;;;;;7.00;4.70;;;;;;;;;;5051966;28;20454;-64
2021/09/26 11:48:41;;;;;;;6.00;2.60;;;;;;;;;;5053507;28;20405;-63
2021/09/26 11:51:09;;;;;;;3.47;2.30;;;;;;;;;;5033603;28;20529;-63
2021/09/26 11:53:35;;;;;;;3.03;2.00;;;;;;;;;;5033728;28;20407;-63
2021/09/26 11:56:10;;;;;;;7.23;2.20;;;;;;;;;;5030818;28;20915;-63
2021/09/26 11:58:36;;;;;;;6.53;2.37;;;;;;;;;;5033397;28;20492;-63
2021/09/26 12:01:02;;;;;;;5.03;2.47;;;;;;;;;;5032693;28;20450;-63
2021/09/26 12:03:29;;;;;;;4.70;2.47;;;;;;;;;;5033223;28;20446;-63
2021/09/26 12:05:56;;;;;;;6.73;2.17;;;;;;;;;;5016474;28;20427;-63
2021/09/26 12:08:23;;;;;;;7.37;3.03;;;;;;;;;;5013507;28;20892;-63
2021/09/26 12:10:49;;;;;;;9.60;2.47;;;;;;;;;;5028687;28;20451;-63
2021/09/26 12:13:22;;;;;;;6.53;2.50;;;;;;;;;;5013723;28;20469;-63
2021/09/26 12:15:49;;;;;;;9.57;2.73;;;;;;;;;;5013648;28;20455;-63
2021/09/26 12:18:22;;;;;;;4.53;2.40;;;;;;;;;;5028903;28;20503;-63
2021/09/26 12:20:48;;;;;;;5.00;2.60;;;;;;;;;;5013784;28;20451;-64
2021/09/26 12:23:26;;;;;;;8.90;3.30;;;;;;;;;;5028336;28;20458;-63
2021/09/26 12:26:00;;;;;;;8.90;3.10;;;;;;;;;;5024315;28;20426;-63
2021/09/26 12:28:26;;;;;;;7.70;3.23;;;;;;;;;;5033143;28;20547;-63
2021/09/26 12:30:54;;;;;;;6.30;3.17;;;;;;;;;;5032171;28;20791;-63
2021/09/26 12:33:38;;;;;;;6.33;3.20;;;;;;;;;;5033280;28;20432;-63
2021/09/26 12:36:06;;;;;;;6.47;3.27;;;;;;;;;;5031337;28;20440;-65
2021/09/26 12:38:49;;;;;;;8.33;4.17;;;;;;;;;;5032768;28;20765;-63
2021/09/26 12:41:21;;;;;;;6.73;3.20;;;;;;;;;;5032018;28;20465;-64
2021/09/26 12:43:47;;;;;;;9.17;3.40;;;;;;;;;;5033006;28;20552;-64
2021/09/26 12:46:15;;;;;;;5.30;3.30;;;;;;;;;;5019836;28;20818;-63
2021/09/26 12:48:45;;;;;;;7.03;3.90;;;;;;;;;;5013153;28;20400;-64
2021/09/26 12:51:12;;;;;;;4.13;3.03;;;;;;;;;;5016289;28;20914;-63
2021/09/26 12:53:40;;;;;;;9.40;3.23;;;;;;;;;;5013243;28;20403;-63
2021/09/26 12:56:08;;;;;;;7.60;3.70;;;;;;;;;;5014865;28;20415;-63
2021/09/26 12:58:42;;;;;;;7.10;3.07;;;;;;;;;;5046645;28;20419;-63
2021/09/26 13:01:16;;;;;;;6.23;3.37;;;;;;;;;;5030695;28;20853;-63
2021/09/26 13:03:59;;;;;;;5.00;3.97;;;;;;;;;;5012892;28;20528;-63
2021/09/26 13:06:30;;;;;;;5.47;3.40;;;;;;;;;;5025618;28;20425;-63
2021/09/26 13:08:57;;;;;;;4.33;2.33;;;;;;;;;;5032539;28;20981;-63
2021/09/26 13:11:26;;;;;;;6.67;3.30;;;;;;;;;;5019039;28;20442;-63
2021/09/26 13:14:04;;;;;;;8.93;3.27;;;;;;;;;;5012727;28;20395;-63
2021/09/26 13:16:33;;;;;;;8.33;3.47;;;;;;;;;;5012740;28;20423;-63
2021/09/26 13:19:19;;;;;;;7.07;3.57;;;;;;;;;;5013315;28;20395;-66
2021/09/26 13:21:58;;;;;;;5.40;2.57;;;;;;;;;;5031240;28;20454;-63
2021/09/26 13:24:28;;;;;;;6.53;3.00;;;;;;;;;;5036181;28;20394;-62
2021/09/26 13:26:54;;;;;;;8.33;3.30;;;;;;;;;;5034965;28;20829;-63
2021/09/26 13:29:29;;;;;;;8.17;3.40;;;;;;;;;;5036361;28;20457;-64
2021/09/26 13:31:57;;;;;;;6.43;3.10;;;;;;;;;;5034273;28;20842;-63
2021/09/26 13:34:29;;;;;;;8.87;2.87;;;;;;;;;;5036032;28;20410;-63
2021/09/26 13:36:58;;;;;;;9.17;3.00;;;;;;;;;;5034920;28;20499;-63
2021/09/26 13:39:36;;;;;;;10.80;4.13;;;;;;;;;;5035826;28;20438;-63
2021/09/26 13:42:07;;;;;;;11.13;3.87;;;;;;;;;;5035040;28;20829;-63
2021/09/26 13:44:33;;;;;;;15.70;3.43;;;;;;;;;;5036017;28;20403;-63
2021/09/26 13:46:59;;;;;;;7.70;3.33;;;;;;;;;;5035135;28;20484;-63
2021/09/26 13:49:25;;;;;;;9.67;3.60;;;;;;;;;;5035999;28;20499;-64
2021/09/26 13:51:51;;;;;;;10.03;3.97;;;;;;;;;;5034753;28;20918;-63
2021/09/26 13:54:17;;;;;;;10.67;3.70;;;;;;;;;;5035762;28;20453;-63
2021/09/26 13:56:44;;;;;;;7.30;3.73;;;;;;;;;;5034838;28;20422;-63
2021/09/26 13:59:10;;;;;;;10.47;4.37;;;;;;;;;;5035389;28;20492;-64
2021/09/26 14:01:37;;;;;;;7.27;3.97;;;;;;;;;;5029992;28;20423;-64
2021/09/26 14:04:03;;;;;;;5.00;4.00;;;;;;;;;;5015873;28;20408;-64
2021/09/26 14:06:30;;;;;;;13.37;4.90;;;;;;;;;;5028995;28;20476;-65
2021/09/26 14:08:56;;;;;;;10.63;3.77;;;;;;;;;;5035323;28;20441;-64
2021/09/26 14:11:25;;;;;;;7.03;4.13;;;;;;;;;;5034287;28;20442;-64
2021/09/26 14:13:51;;;;;;;5.43;3.50;;;;;;;;;;5035174;28;20406;-64
2021/09/26 14:16:19;;;;;;;6.47;3.70;;;;;;;;;;5034576;28;20472;-64
2021/09/26 14:18:46;;;;;;;6.07;3.37;;;;;;;;;;5035445;28;20410;-64
2021/09/26 14:21:13;;;;;;;7.23;3.67;;;;;;;;;;5032116;28;20541;-64
2021/09/26 14:23:40;;;;;;;8.20;3.20;;;;;;;;;;5034957;28;20966;-64
2021/09/26 14:26:07;;;;;;;7.30;3.10;;;;;;;;;;5034186;28;20421;-64
2021/09/26 14:28:34;;;;;;;5.27;3.30;;;;;;;;;;5034991;28;20410;-64
2021/09/26 14:31:01;;;;;;;8.27;5.33;;;;;;;;;;5032681;28;20477;-64
2021/09/26 14:33:27;;;;;;;9.30;3.70;;;;;;;;;;5035177;28;20740;-64
2021/09/26 14:35:53;;;;;;;5.37;3.70;;;;;;;;;;5029698;28;20435;-64
2021/09/26 14:38:19;;;;;;;11.50;3.50;;;;;;;;;;5015199;28;20406;-63
2021/09/26 14:40:46;;;;;;;5.50;3.70;;;;;;;;;;5020818;28;20477;-63
2021/09/26 14:43:12;;;;;;;7.37;3.93;;;;;;;;;;5034759;28;20453;-63
2021/09/26 14:45:39;;;;;;;10.37;4.20;;;;;;;;;;5033833;28;20422;-63
2021/09/26 14:48:06;;;;;;;7.83;4.30;;;;;;;;;;5034890;28;20891;-63